Fort Myers, FL

7:29 PM EDT on August 20, 2017 (GMT -0400)
Page | | Change Station

Elev 16 ft 26.59 °N, 81.86 °W | Updated 36 minutes ago

Clear
Clear
80 °F
Feels Like 85 °F
N
5
Wind Variable Wind from NE

Today
High -- | Low -- °F
--% Chance of Precip.
Yesterday
High -- | Low -- °F
Precip. -- in
Pressure 30.00 in
Visibility 10.0 miles
Clouds Clear
Heat Index 85 °F
Dew Point 76 °F
Humidity 87%
Rainfall 0.23 in
Snow Depth Not available.
7:01 AM 7:59 PM
Waning Crescent, 1% visible
METAR KFMY 202253Z 04004KT 10SM CLR 27/24 A3000 RMK AO2 LTG DSNT SW AND W RAE12 TSE2155B2156E11 SLP159 P0000 T02670244
Pressure 30.00 in
Visibility 10.0 miles
Clouds Clear
Heat Index 85 °F
Dew Point 76 °F
Humidity 87%
Rainfall 0.23 in
Snow Depth Not available.
7:01 AM 7:59 PM
Waning Crescent, 1% visible
METAR KFMY 202253Z 04004KT 10SM CLR 27/24 A3000 RMK AO2 LTG DSNT SW AND W RAE12 TSE2155B2156E11 SLP159 P0000 T02670244

Get Severe Weather Alerts

Thanks for signing up!

Be on the lookout for a verification email in your inbox.

You'll start receiving the daily forecast at 6 AM.

×

10-Day Weather Forecast

Almanac

Astronomy

Aug. 20, 2017 Rise Set
Actual Time
Civil Twilight
Nautical Twilight
Astronomical Twilight
Moon
Length of Visible Light
Length of Day
Tomorrow will be .
, % of the Moon is Illuminated

Today's Extremes

State Highs State Lows

Community

WunderPhotos

Category 6

Welcome to Category 6. This is the collective home for Weather Underground's featured writeups by Dr. Jeff Masters (right), Bob Henson (left), Chris Burt, and other regular contributors.

Nearby

Air Quality

  Air Quality AQ Index Pollutant
Not available.

Snow Depth

Station Depth Elevation

Earthquake Activity

City Distance Mag. Time & Date
Minimum magnitude displayed is 2.5.

Coastal Water Temperatures

Place Temperature

Stations

Nearby Weather Stations

Station Location Temp. Windchill Dew Point Humidity Wind Precip. Elev Updated Type
                   

Watches & Warnings

There are currently no watches in effect.